METAR AND TAF INFORMATION
METAR FOR EDHI
ADDS - METARS form results

(1047 UTC 23 February 2018)
Data provider http://aviationweather.gov/adds/metars/
 
METAR text: EDHI 231020Z 09010KT 060V140 CAVOK M00/M08 Q1027
Conditions at: EDHI (HAMBURG/FINKENWE, DE) observed 1020 UTC 23 February 2018
Temperature: 0.0°C (32°F)
Dewpoint: -8.0°C (18°F) [RH = 55%]
Pressure (altimeter): 30.32 inches Hg (1027.0 mb)
Winds: from the E (90 degrees) at 12 MPH (10 knots; 5.2 m/s)
Visibility: 6 or more miles (10+ km)
Ceiling: ceiling and visibility are OK
Clouds: unknown
Weather: no significant weather observed at this time

METAR text: EDHI 230950Z 08010KT 060V130 CAVOK M00/M08 Q1027
Conditions at: EDHI (HAMBURG/FINKENWE, DE) observed 0950 UTC 23 February 2018
Temperature: 0.0°C (32°F)
Dewpoint: -8.0°C (18°F) [RH = 55%]
Pressure (altimeter): 30.32 inches Hg (1027.0 mb)
Winds: from the E (80 degrees) at 12 MPH (10 knots; 5.2 m/s)
Visibility: 6 or more miles (10+ km)
Ceiling: ceiling and visibility are OK
Clouds: unknown
Weather: no significant weather observed at this time

Forecast for: EDHI (HAMBURG/FINKENWE, DE)
Text: TAF EDHI 230800Z 2309/2318 08009KT CAVOK
Forecast period: 0900 to 1800 UTC 23 February 2018
Forecast type: FROM: standard forecast or significant change
Winds: from the E (80 degrees) at 10 MPH (9 knots; 4.7 m/s)
Visibility: 6 or more miles (10+ km)
Clouds: not forecast
Weather: NSW  (no significant weather)

 AIRPORT MAP

 RUNWAY INFORMATION
Runway 05 Runway length 8629 ft Runway width 148 ft
Runway elevation 16 ft Runway displaced threshold 341 ft Runway heading 52
Runway 23 Runway length 8629 ft Runway width 148 ft
Runway elevation 15 ft Runway displaced threshold 2474 ft Runway heading 232

 AIRPORT FREQUENCIES
Type A/D Name BREMEN RAD Frequency 124.225 MHZ
Type AFIS Name BREMEN INF Frequency 125.1 MHZ
Type ATIS Name ATIS Frequency 123.125 MHZ
Type TWR Name FINKENWERD Frequency 123.25 MHZ

 AIRPORT NEAR NAVIGATION AIDS



Powered by Virtual Airlines Manager [v2.6.2]